<?xml version="1.0" encoding="UTF-8" standalone="no" ?>
<gpx xmlns="http://www.topografix.com/GPX/1/1" xmlns:xsi="http://www.w3.org/2001/XMLSchema-instance" xsi:schemaLocation="http://www.topografix.com/GPX/1/1 http://www.topografix.com/GPX/1/1/gpx.xsd" version="1.1" creator="VisuGPX - https://www.visugpx.com">
  <metadata>
    <name>Sortie voile du 02 mai 2016</name>
    <desc><![CDATA[Sortie voile avec Force 4 et Markus à la barre]]></desc>
  </metadata>
  <trk>
    <name><![CDATA[ONmove 100 - 02/05/2016]]></name>
    <trkseg>
      <trkpt lat="44.49077" lon="-1.09128">
        <ele>20</ele>
        <time>2016-05-02T13:48:03Z</time>
      </trkpt>
      <trkpt lat="44.49066" lon="-1.09211">
        <ele>20</ele>
        <time>2016-05-02T13:49:07Z</time>
      </trkpt>
      <trkpt lat="44.49026" lon="-1.09271">
        <ele>20</ele>
        <time>2016-05-02T13:49:29Z</time>
      </trkpt>
      <trkpt lat="44.48962" lon="-1.09403">
        <ele>20</ele>
        <time>2016-05-02T13:50:14Z</time>
      </trkpt>
      <trkpt lat="44.48901" lon="-1.09537">
        <ele>20</ele>
        <time>2016-05-02T13:50:59Z</time>
      </trkpt>
      <trkpt lat="44.48846" lon="-1.09671">
        <ele>20</ele>
        <time>2016-05-02T13:51:42Z</time>
      </trkpt>
      <trkpt lat="44.48809" lon="-1.09755">
        <ele>20</ele>
        <time>2016-05-02T13:52:09Z</time>
      </trkpt>
      <trkpt lat="44.4877" lon="-1.09846">
        <ele>20</ele>
        <time>2016-05-02T13:52:37Z</time>
      </trkpt>
      <trkpt lat="44.48741" lon="-1.09935">
        <ele>20</ele>
        <time>2016-05-02T13:53:04Z</time>
      </trkpt>
      <trkpt lat="44.48713" lon="-1.10025">
        <ele>20</ele>
        <time>2016-05-02T13:53:37Z</time>
      </trkpt>
      <trkpt lat="44.48819" lon="-1.10032">
        <ele>20</ele>
        <time>2016-05-02T13:54:32Z</time>
      </trkpt>
      <trkpt lat="44.48921" lon="-1.10048">
        <ele>20</ele>
        <time>2016-05-02T13:55:12Z</time>
      </trkpt>
      <trkpt lat="44.48987" lon="-1.10053">
        <ele>20</ele>
        <time>2016-05-02T13:55:39Z</time>
      </trkpt>
      <trkpt lat="44.49061" lon="-1.10051">
        <ele>20</ele>
        <time>2016-05-02T13:56:10Z</time>
      </trkpt>
      <trkpt lat="44.49134" lon="-1.10045">
        <ele>20</ele>
        <time>2016-05-02T13:56:42Z</time>
      </trkpt>
      <trkpt lat="44.49199" lon="-1.10057">
        <ele>20</ele>
        <time>2016-05-02T13:57:12Z</time>
      </trkpt>
      <trkpt lat="44.49145" lon="-1.10111">
        <ele>20</ele>
        <time>2016-05-02T13:57:47Z</time>
      </trkpt>
      <trkpt lat="44.4911" lon="-1.10178">
        <ele>20</ele>
        <time>2016-05-02T13:58:12Z</time>
      </trkpt>
      <trkpt lat="44.49053" lon="-1.10284">
        <ele>20</ele>
        <time>2016-05-02T13:58:47Z</time>
      </trkpt>
      <trkpt lat="44.49012" lon="-1.10404">
        <ele>20</ele>
        <time>2016-05-02T13:59:24Z</time>
      </trkpt>
      <trkpt lat="44.48972" lon="-1.10522">
        <ele>20</ele>
        <time>2016-05-02T14:00:02Z</time>
      </trkpt>
      <trkpt lat="44.48927" lon="-1.10638">
        <ele>20</ele>
        <time>2016-05-02T14:00:39Z</time>
      </trkpt>
      <trkpt lat="44.48884" lon="-1.10753">
        <ele>20</ele>
        <time>2016-05-02T14:01:17Z</time>
      </trkpt>
      <trkpt lat="44.48842" lon="-1.10867">
        <ele>20</ele>
        <time>2016-05-02T14:01:54Z</time>
      </trkpt>
      <trkpt lat="44.48811" lon="-1.10986">
        <ele>20</ele>
        <time>2016-05-02T14:02:32Z</time>
      </trkpt>
      <trkpt lat="44.48775" lon="-1.11111">
        <ele>20</ele>
        <time>2016-05-02T14:03:09Z</time>
      </trkpt>
      <trkpt lat="44.48746" lon="-1.11229">
        <ele>20</ele>
        <time>2016-05-02T14:03:45Z</time>
      </trkpt>
      <trkpt lat="44.48719" lon="-1.11353">
        <ele>20</ele>
        <time>2016-05-02T14:04:22Z</time>
      </trkpt>
      <trkpt lat="44.48694" lon="-1.11474">
        <ele>20</ele>
        <time>2016-05-02T14:04:57Z</time>
      </trkpt>
      <trkpt lat="44.48649" lon="-1.11591">
        <ele>20</ele>
        <time>2016-05-02T14:05:32Z</time>
      </trkpt>
      <trkpt lat="44.48605" lon="-1.11701">
        <ele>20</ele>
        <time>2016-05-02T14:06:04Z</time>
      </trkpt>
      <trkpt lat="44.48552" lon="-1.11809">
        <ele>20</ele>
        <time>2016-05-02T14:06:39Z</time>
      </trkpt>
      <trkpt lat="44.48502" lon="-1.11915">
        <ele>20</ele>
        <time>2016-05-02T14:07:14Z</time>
      </trkpt>
      <trkpt lat="44.48461" lon="-1.12029">
        <ele>20</ele>
        <time>2016-05-02T14:07:47Z</time>
      </trkpt>
      <trkpt lat="44.48423" lon="-1.12141">
        <ele>20</ele>
        <time>2016-05-02T14:08:19Z</time>
      </trkpt>
      <trkpt lat="44.48389" lon="-1.1226">
        <ele>20</ele>
        <time>2016-05-02T14:08:54Z</time>
      </trkpt>
      <trkpt lat="44.48357" lon="-1.12378">
        <ele>20</ele>
        <time>2016-05-02T14:09:29Z</time>
      </trkpt>
      <trkpt lat="44.4832" lon="-1.12491">
        <ele>20</ele>
        <time>2016-05-02T14:10:02Z</time>
      </trkpt>
      <trkpt lat="44.48279" lon="-1.1261">
        <ele>20</ele>
        <time>2016-05-02T14:10:37Z</time>
      </trkpt>
      <trkpt lat="44.48251" lon="-1.12726">
        <ele>20</ele>
        <time>2016-05-02T14:11:12Z</time>
      </trkpt>
      <trkpt lat="44.48227" lon="-1.12848">
        <ele>20</ele>
        <time>2016-05-02T14:11:49Z</time>
      </trkpt>
      <trkpt lat="44.48196" lon="-1.12966">
        <ele>20</ele>
        <time>2016-05-02T14:12:27Z</time>
      </trkpt>
      <trkpt lat="44.48162" lon="-1.13089">
        <ele>20</ele>
        <time>2016-05-02T14:13:04Z</time>
      </trkpt>
      <trkpt lat="44.48129" lon="-1.13207">
        <ele>20</ele>
        <time>2016-05-02T14:13:42Z</time>
      </trkpt>
      <trkpt lat="44.48093" lon="-1.13318">
        <ele>20</ele>
        <time>2016-05-02T14:14:17Z</time>
      </trkpt>
      <trkpt lat="44.48062" lon="-1.13436">
        <ele>20</ele>
        <time>2016-05-02T14:14:54Z</time>
      </trkpt>
      <trkpt lat="44.48025" lon="-1.1356">
        <ele>20</ele>
        <time>2016-05-02T14:15:32Z</time>
      </trkpt>
      <trkpt lat="44.47987" lon="-1.13674">
        <ele>20</ele>
        <time>2016-05-02T14:16:09Z</time>
      </trkpt>
      <trkpt lat="44.47947" lon="-1.13788">
        <ele>20</ele>
        <time>2016-05-02T14:16:44Z</time>
      </trkpt>
      <trkpt lat="44.47912" lon="-1.13905">
        <ele>20</ele>
        <time>2016-05-02T14:17:17Z</time>
      </trkpt>
      <trkpt lat="44.47889" lon="-1.14028">
        <ele>20</ele>
        <time>2016-05-02T14:17:54Z</time>
      </trkpt>
      <trkpt lat="44.47854" lon="-1.14149">
        <ele>20</ele>
        <time>2016-05-02T14:18:29Z</time>
      </trkpt>
      <trkpt lat="44.47807" lon="-1.1426">
        <ele>20</ele>
        <time>2016-05-02T14:19:02Z</time>
      </trkpt>
      <trkpt lat="44.47746" lon="-1.14366">
        <ele>20</ele>
        <time>2016-05-02T14:19:37Z</time>
      </trkpt>
      <trkpt lat="44.47684" lon="-1.14461">
        <ele>20</ele>
        <time>2016-05-02T14:20:09Z</time>
      </trkpt>
      <trkpt lat="44.47626" lon="-1.14554">
        <ele>20</ele>
        <time>2016-05-02T14:20:39Z</time>
      </trkpt>
      <trkpt lat="44.47562" lon="-1.14652">
        <ele>20</ele>
        <time>2016-05-02T14:21:12Z</time>
      </trkpt>
      <trkpt lat="44.47507" lon="-1.14746">
        <ele>20</ele>
        <time>2016-05-02T14:21:44Z</time>
      </trkpt>
      <trkpt lat="44.47439" lon="-1.14835">
        <ele>20</ele>
        <time>2016-05-02T14:22:17Z</time>
      </trkpt>
      <trkpt lat="44.47376" lon="-1.14923">
        <ele>20</ele>
        <time>2016-05-02T14:22:49Z</time>
      </trkpt>
      <trkpt lat="44.47307" lon="-1.15009">
        <ele>20</ele>
        <time>2016-05-02T14:23:22Z</time>
      </trkpt>
      <trkpt lat="44.47238" lon="-1.15095">
        <ele>20</ele>
        <time>2016-05-02T14:23:59Z</time>
      </trkpt>
      <trkpt lat="44.47161" lon="-1.15173">
        <ele>20</ele>
        <time>2016-05-02T14:24:39Z</time>
      </trkpt>
      <trkpt lat="44.47115" lon="-1.15285">
        <ele>20</ele>
        <time>2016-05-02T14:25:12Z</time>
      </trkpt>
      <trkpt lat="44.47058" lon="-1.15378">
        <ele>20</ele>
        <time>2016-05-02T14:25:44Z</time>
      </trkpt>
      <trkpt lat="44.46994" lon="-1.15469">
        <ele>20</ele>
        <time>2016-05-02T14:26:17Z</time>
      </trkpt>
      <trkpt lat="44.46936" lon="-1.15566">
        <ele>20</ele>
        <time>2016-05-02T14:26:52Z</time>
      </trkpt>
      <trkpt lat="44.46878" lon="-1.15665">
        <ele>20</ele>
        <time>2016-05-02T14:27:29Z</time>
      </trkpt>
      <trkpt lat="44.46819" lon="-1.15762">
        <ele>20</ele>
        <time>2016-05-02T14:28:04Z</time>
      </trkpt>
      <trkpt lat="44.46763" lon="-1.15858">
        <ele>20</ele>
        <time>2016-05-02T14:28:37Z</time>
      </trkpt>
      <trkpt lat="44.467" lon="-1.15952">
        <ele>20</ele>
        <time>2016-05-02T14:29:12Z</time>
      </trkpt>
      <trkpt lat="44.46634" lon="-1.16038">
        <ele>20</ele>
        <time>2016-05-02T14:29:49Z</time>
      </trkpt>
      <trkpt lat="44.46575" lon="-1.16131">
        <ele>20</ele>
        <time>2016-05-02T14:30:24Z</time>
      </trkpt>
      <trkpt lat="44.46507" lon="-1.16219">
        <ele>20</ele>
        <time>2016-05-02T14:31:13Z</time>
      </trkpt>
      <trkpt lat="44.46576" lon="-1.1611">
        <ele>20</ele>
        <time>2016-05-02T14:32:02Z</time>
      </trkpt>
      <trkpt lat="44.46648" lon="-1.15994">
        <ele>20</ele>
        <time>2016-05-02T14:32:39Z</time>
      </trkpt>
      <trkpt lat="44.4671" lon="-1.15884">
        <ele>20</ele>
        <time>2016-05-02T14:33:14Z</time>
      </trkpt>
      <trkpt lat="44.46774" lon="-1.15759">
        <ele>20</ele>
        <time>2016-05-02T14:33:52Z</time>
      </trkpt>
      <trkpt lat="44.46836" lon="-1.15633">
        <ele>20</ele>
        <time>2016-05-02T14:34:32Z</time>
      </trkpt>
      <trkpt lat="44.46903" lon="-1.15518">
        <ele>20</ele>
        <time>2016-05-02T14:35:09Z</time>
      </trkpt>
      <trkpt lat="44.46959" lon="-1.15391">
        <ele>20</ele>
        <time>2016-05-02T14:35:49Z</time>
      </trkpt>
      <trkpt lat="44.47022" lon="-1.1527">
        <ele>20</ele>
        <time>2016-05-02T14:36:29Z</time>
      </trkpt>
      <trkpt lat="44.47093" lon="-1.15157">
        <ele>20</ele>
        <time>2016-05-02T14:37:07Z</time>
      </trkpt>
      <trkpt lat="44.47165" lon="-1.15041">
        <ele>20</ele>
        <time>2016-05-02T14:37:47Z</time>
      </trkpt>
      <trkpt lat="44.47219" lon="-1.14916">
        <ele>20</ele>
        <time>2016-05-02T14:38:24Z</time>
      </trkpt>
      <trkpt lat="44.47287" lon="-1.14797">
        <ele>20</ele>
        <time>2016-05-02T14:39:02Z</time>
      </trkpt>
      <trkpt lat="44.47365" lon="-1.14703">
        <ele>20</ele>
        <time>2016-05-02T14:39:37Z</time>
      </trkpt>
      <trkpt lat="44.47435" lon="-1.14587">
        <ele>20</ele>
        <time>2016-05-02T14:40:14Z</time>
      </trkpt>
      <trkpt lat="44.47502" lon="-1.14467">
        <ele>20</ele>
        <time>2016-05-02T14:40:54Z</time>
      </trkpt>
      <trkpt lat="44.47581" lon="-1.14362">
        <ele>20</ele>
        <time>2016-05-02T14:41:32Z</time>
      </trkpt>
      <trkpt lat="44.47656" lon="-1.14261">
        <ele>20</ele>
        <time>2016-05-02T14:42:07Z</time>
      </trkpt>
      <trkpt lat="44.47721" lon="-1.14141">
        <ele>20</ele>
        <time>2016-05-02T14:42:47Z</time>
      </trkpt>
      <trkpt lat="44.47801" lon="-1.14042">
        <ele>20</ele>
        <time>2016-05-02T14:43:24Z</time>
      </trkpt>
      <trkpt lat="44.47877" lon="-1.13933">
        <ele>20</ele>
        <time>2016-05-02T14:44:04Z</time>
      </trkpt>
      <trkpt lat="44.47959" lon="-1.13825">
        <ele>20</ele>
        <time>2016-05-02T14:44:47Z</time>
      </trkpt>
      <trkpt lat="44.4803" lon="-1.13715">
        <ele>20</ele>
        <time>2016-05-02T14:45:24Z</time>
      </trkpt>
      <trkpt lat="44.48104" lon="-1.13606">
        <ele>20</ele>
        <time>2016-05-02T14:46:04Z</time>
      </trkpt>
      <trkpt lat="44.48165" lon="-1.13484">
        <ele>20</ele>
        <time>2016-05-02T14:46:44Z</time>
      </trkpt>
      <trkpt lat="44.48235" lon="-1.13374">
        <ele>20</ele>
        <time>2016-05-02T14:47:22Z</time>
      </trkpt>
      <trkpt lat="44.48309" lon="-1.13271">
        <ele>20</ele>
        <time>2016-05-02T14:47:59Z</time>
      </trkpt>
      <trkpt lat="44.48383" lon="-1.13168">
        <ele>20</ele>
        <time>2016-05-02T14:48:37Z</time>
      </trkpt>
      <trkpt lat="44.48446" lon="-1.13041">
        <ele>20</ele>
        <time>2016-05-02T14:49:19Z</time>
      </trkpt>
      <trkpt lat="44.48513" lon="-1.12926">
        <ele>20</ele>
        <time>2016-05-02T14:49:59Z</time>
      </trkpt>
      <trkpt lat="44.4857" lon="-1.12796">
        <ele>20</ele>
        <time>2016-05-02T14:50:42Z</time>
      </trkpt>
      <trkpt lat="44.48625" lon="-1.12665">
        <ele>20</ele>
        <time>2016-05-02T14:51:24Z</time>
      </trkpt>
      <trkpt lat="44.487" lon="-1.12555">
        <ele>20</ele>
        <time>2016-05-02T14:52:04Z</time>
      </trkpt>
      <trkpt lat="44.48752" lon="-1.12424">
        <ele>20</ele>
        <time>2016-05-02T14:52:52Z</time>
      </trkpt>
      <trkpt lat="44.48776" lon="-1.1227">
        <ele>20</ele>
        <time>2016-05-02T14:53:42Z</time>
      </trkpt>
      <trkpt lat="44.48792" lon="-1.12125">
        <ele>20</ele>
        <time>2016-05-02T14:54:24Z</time>
      </trkpt>
      <trkpt lat="44.48807" lon="-1.11972">
        <ele>20</ele>
        <time>2016-05-02T14:55:15Z</time>
      </trkpt>
      <trkpt lat="44.48826" lon="-1.11823">
        <ele>20</ele>
        <time>2016-05-02T14:56:02Z</time>
      </trkpt>
      <trkpt lat="44.48846" lon="-1.11681">
        <ele>20</ele>
        <time>2016-05-02T14:56:42Z</time>
      </trkpt>
      <trkpt lat="44.48864" lon="-1.11535">
        <ele>20</ele>
        <time>2016-05-02T14:57:22Z</time>
      </trkpt>
      <trkpt lat="44.48868" lon="-1.11382">
        <ele>20</ele>
        <time>2016-05-02T14:58:04Z</time>
      </trkpt>
      <trkpt lat="44.48884" lon="-1.11233">
        <ele>20</ele>
        <time>2016-05-02T14:58:44Z</time>
      </trkpt>
      <trkpt lat="44.48907" lon="-1.11088">
        <ele>20</ele>
        <time>2016-05-02T14:59:24Z</time>
      </trkpt>
      <trkpt lat="44.48918" lon="-1.10938">
        <ele>20</ele>
        <time>2016-05-02T15:00:07Z</time>
      </trkpt>
      <trkpt lat="44.48939" lon="-1.10787">
        <ele>20</ele>
        <time>2016-05-02T15:00:54Z</time>
      </trkpt>
      <trkpt lat="44.4895" lon="-1.10641">
        <ele>20</ele>
        <time>2016-05-02T15:01:39Z</time>
      </trkpt>
      <trkpt lat="44.48975" lon="-1.10494">
        <ele>20</ele>
        <time>2016-05-02T15:02:22Z</time>
      </trkpt>
      <trkpt lat="44.49002" lon="-1.10351">
        <ele>20</ele>
        <time>2016-05-02T15:02:59Z</time>
      </trkpt>
      <trkpt lat="44.49009" lon="-1.10197">
        <ele>20</ele>
        <time>2016-05-02T15:03:39Z</time>
      </trkpt>
      <trkpt lat="44.49023" lon="-1.10044">
        <ele>20</ele>
        <time>2016-05-02T15:04:19Z</time>
      </trkpt>
      <trkpt lat="44.49042" lon="-1.09895">
        <ele>20</ele>
        <time>2016-05-02T15:04:59Z</time>
      </trkpt>
      <trkpt lat="44.49038" lon="-1.09812">
        <ele>20</ele>
        <time>2016-05-02T15:05:27Z</time>
      </trkpt>
      <trkpt lat="44.49058" lon="-1.09736">
        <ele>20</ele>
        <time>2016-05-02T15:05:52Z</time>
      </trkpt>
      <trkpt lat="44.49071" lon="-1.09586">
        <ele>20</ele>
        <time>2016-05-02T15:06:37Z</time>
      </trkpt>
      <trkpt lat="44.4909" lon="-1.09438">
        <ele>20</ele>
        <time>2016-05-02T15:07:22Z</time>
      </trkpt>
      <trkpt lat="44.49105" lon="-1.09285">
        <ele>20</ele>
        <time>2016-05-02T15:08:02Z</time>
      </trkpt>
      <trkpt lat="44.49104" lon="-1.09134">
        <ele>20</ele>
        <time>2016-05-02T15:08:45Z</time>
      </trkpt>
      <trkpt lat="44.49105" lon="-1.08983">
        <ele>20</ele>
        <time>2016-05-02T15:09:37Z</time>
      </trkpt>
      <trkpt lat="44.49124" lon="-1.08831">
        <ele>20</ele>
        <time>2016-05-02T15:10:19Z</time>
      </trkpt>
      <trkpt lat="44.49137" lon="-1.08681">
        <ele>20</ele>
        <time>2016-05-02T15:11:04Z</time>
      </trkpt>
      <trkpt lat="44.49162" lon="-1.08531">
        <ele>20</ele>
        <time>2016-05-02T15:11:49Z</time>
      </trkpt>
      <trkpt lat="44.49219" lon="-1.0839">
        <ele>20</ele>
        <time>2016-05-02T15:12:27Z</time>
      </trkpt>
      <trkpt lat="44.49276" lon="-1.08254">
        <ele>20</ele>
        <time>2016-05-02T15:13:09Z</time>
      </trkpt>
      <trkpt lat="44.49332" lon="-1.08121">
        <ele>20</ele>
        <time>2016-05-02T15:14:14Z</time>
      </trkpt>
      <trkpt lat="44.49406" lon="-1.08002">
        <ele>21</ele>
        <time>2016-05-02T15:15:22Z</time>
      </trkpt>
      <trkpt lat="44.49478" lon="-1.07887">
        <ele>25</ele>
        <time>2016-05-02T15:34:44Z</time>
      </trkpt>
    </trkseg>
  </trk>
</gpx>